createdAt,value
2023-01-15T00:00:12.318Z,90.71
2023-01-15T00:00:43.714Z,90.90
2023-01-15T00:01:27.372Z,90.82
2023-01-15T00:01:59.298Z,90.83
2023-01-15T00:02:31.304Z,90.62
2023-01-15T00:03:02.779Z,90.68
2023-01-15T00:03:34.213Z,90.39
2023-01-15T00:04:06.784Z,90.91
2023-01-15T00:04:38.291Z,90.73
2023-01-15T00:05:09.687Z,90.59
2023-01-15T00:05:41.149Z,90.76
2023-01-15T00:06:12.573Z,90.78
2023-01-15T00:06:44.194Z,90.30
2023-01-15T00:07:15.650Z,90.42
2023-01-15T00:07:47.006Z,89.88
2023-01-15T00:08:18.587Z,90.27
2023-01-15T00:08:51.063Z,89.81
2023-01-15T00:09:22.627Z,90.01
2023-01-15T00:09:53.968Z,89.64
2023-01-15T00:10:25.496Z,89.80
2023-01-15T00:10:56.950Z,90.09
2023-01-15T00:11:28.306Z,89.66
2023-01-15T00:12:00.771Z,90.31
2023-01-15T00:12:32.190Z,89.64
2023-01-15T00:13:03.571Z,90.09
2023-01-15T00:13:34.938Z,89.54
2023-01-15T00:14:06.367Z,90.11
2023-01-15T00:14:37.755Z,89.51
2023-01-15T00:15:09.549Z,89.63
2023-01-15T00:15:40.947Z,89.78
2023-01-15T00:16:15.650Z,89.56
2023-01-15T00:16:51.121Z,89.91
2023-01-15T00:17:22.553Z,90.07
2023-01-15T00:17:53.985Z,90.25
2023-01-15T00:18:25.558Z,89.70
2023-01-15T00:19:19.053Z,89.73
2023-01-15T00:19:50.443Z,90.12
2023-01-15T00:20:21.831Z,89.94
2023-01-15T00:21:02.457Z,90.09
2023-01-15T00:21:34.253Z,89.91
2023-01-15T00:22:05.869Z,90.13
2023-01-15T00:22:37.272Z,89.59
2023-01-15T00:23:28.616Z,90.20
2023-01-15T00:24:19.208Z,90.09
2023-01-15T00:25:09.165Z,89.78
2023-01-15T00:25:58.946Z,90.11
2023-01-15T00:26:51.061Z,89.70
2023-01-15T00:27:40.458Z,89.88
2023-01-15T00:28:14.842Z,90.03
2023-01-15T00:28:48.537Z,89.79
2023-01-15T00:29:20.950Z,89.31
2023-01-15T00:29:52.411Z,89.47
2023-01-15T00:30:24.894Z,89.64
2023-01-15T00:30:56.374Z,89.80
2023-01-15T00:31:29.088Z,89.51
2023-01-15T00:32:04.035Z,89.83
2023-01-15T00:32:35.464Z,89.75
2023-01-15T00:33:06.939Z,89.43
2023-01-15T00:33:38.406Z,89.86
2023-01-15T00:34:09.802Z,89.97
2023-01-15T00:34:41.211Z,89.76
2023-01-15T00:35:19.149Z,90.42
2023-01-15T00:35:50.534Z,89.51
2023-01-15T00:36:22.162Z,89.88
2023-01-15T00:36:54.075Z,89.68
2023-01-15T00:37:25.530Z,89.84
2023-01-15T00:37:56.906Z,89.50
2023-01-15T00:38:28.418Z,89.44
2023-01-15T00:39:01.067Z,89.72
2023-01-15T00:39:33.462Z,89.42
2023-01-15T00:40:05.405Z,89.92
2023-01-15T00:40:36.814Z,89.77
2023-01-15T00:41:08.419Z,89.77
2023-01-15T00:41:39.835Z,89.83
2023-01-15T00:42:11.918Z,89.56
2023-01-15T00:42:46.359Z,90.07
2023-01-15T00:43:25.913Z,89.43
2023-01-15T00:43:57.396Z,89.16
2023-01-15T00:44:28.783Z,88.96
2023-01-15T00:45:05.817Z,88.96
2023-01-15T00:45:37.214Z,89.21
2023-01-15T00:46:09.029Z,89.08
2023-01-15T00:46:40.653Z,89.27
2023-01-15T00:47:15.136Z,88.85
2023-01-15T00:47:48.761Z,89.46
2023-01-15T00:48:20.167Z,89.32
2023-01-15T00:48:51.636Z,89.50
2023-01-15T00:49:23.213Z,89.37
2023-01-15T00:49:54.632Z,89.51
2023-01-15T00:50:26.211Z,89.51
2023-01-15T00:50:57.971Z,89.82
2023-01-15T00:51:29.397Z,89.42
2023-01-15T00:52:00.789Z,89.78
2023-01-15T00:52:32.389Z,89.46
2023-01-15T00:53:03.847Z,89.22
2023-01-15T00:53:35.321Z,89.35
2023-01-15T00:54:06.811Z,89.17
2023-01-15T00:54:38.538Z,88.96
2023-01-15T00:55:10.074Z,89.11
2023-01-15T00:55:41.712Z,89.74
2023-01-15T00:56:13.072Z,89.96
2023-01-15T00:56:44.943Z,90.07
2023-01-15T00:58:05.073Z,89.60
2023-01-15T00:58:36.598Z,89.90
2023-01-15T00:59:08.043Z,89.98
2023-01-15T00:59:39.418Z,90.30
2023-01-15T01:00:12.426Z,89.85
2023-01-15T01:00:43.970Z,90.06
2023-01-15T01:01:16.119Z,89.95
2023-01-15T01:01:47.647Z,89.78
2023-01-15T01:02:19.334Z,89.90
2023-01-15T01:02:50.950Z,90.25
2023-01-15T01:03:22.570Z,90.00
2023-01-15T01:03:53.975Z,90.15
2023-01-15T01:04:25.540Z,89.84
2023-01-15T01:04:56.947Z,90.16
2023-01-15T01:05:28.354Z,90.06
2023-01-15T01:06:01.766Z,89.76
2023-01-15T01:06:33.194Z,90.48
2023-01-15T01:07:04.841Z,90.36
2023-01-15T01:07:36.201Z,90.39
2023-01-15T01:08:07.599Z,90.75
2023-01-15T01:08:38.999Z,90.48
2023-01-15T01:09:13.943Z,90.23
2023-01-15T01:09:45.399Z,90.08
2023-01-15T01:10:17.121Z,90.45
2023-01-15T01:10:48.440Z,90.47
2023-01-15T01:11:26.114Z,90.35
2023-01-15T01:11:57.460Z,90.17
2023-01-15T01:12:28.959Z,90.64
2023-01-15T01:13:00.395Z,90.59
2023-01-15T01:13:32.889Z,90.49
2023-01-15T01:14:04.344Z,90.68
2023-01-15T01:14:36.998Z,90.91
2023-01-15T01:15:12.278Z,90.94
2023-01-15T01:15:43.613Z,90.05
2023-01-15T01:16:25.573Z,90.64
2023-01-15T01:16:56.956Z,90.81
2023-01-15T01:17:28.403Z,91.05
2023-01-15T01:18:00.308Z,90.60
2023-01-15T01:18:31.773Z,90.48
2023-01-15T01:19:13.405Z,90.58
2023-01-15T01:19:44.852Z,90.12
2023-01-15T01:20:19.438Z,90.35
2023-01-15T01:20:51.029Z,90.42
2023-01-15T01:21:22.578Z,90.18
2023-01-15T01:21:54.305Z,90.88
2023-01-15T01:22:26.013Z,90.44
2023-01-15T01:22:57.634Z,90.14
2023-01-15T01:23:29.623Z,90.49
2023-01-15T01:24:01.585Z,90.21
2023-01-15T01:24:32.993Z,90.42
2023-01-15T01:25:04.672Z,90.30
2023-01-15T01:25:36.491Z,89.95
2023-01-15T01:26:07.855Z,90.33
2023-01-15T01:26:39.473Z,89.96
2023-01-15T01:27:11.039Z,90.23
2023-01-15T01:27:44.999Z,90.00
2023-01-15T01:28:16.423Z,89.65
2023-01-15T01:28:52.497Z,89.88
2023-01-15T01:29:24.686Z,90.36
2023-01-15T01:29:56.096Z,90.13
2023-01-15T01:30:27.612Z,90.23
2023-01-15T01:31:50.829Z,90.49
2023-01-15T01:32:22.209Z,90.34
2023-01-15T01:32:53.642Z,89.75
2023-01-15T01:33:25.046Z,89.78
2023-01-15T01:33:58.413Z,89.93
2023-01-15T01:34:29.919Z,89.88
2023-01-15T01:35:01.378Z,89.95
2023-01-15T01:35:33.050Z,90.04
2023-01-15T01:36:04.603Z,89.60
2023-01-15T01:36:38.691Z,89.72
2023-01-15T01:37:10.175Z,90.12
2023-01-15T01:37:41.571Z,90.23
2023-01-15T01:38:13.180Z,90.01
2023-01-15T01:38:49.599Z,90.00
2023-01-15T01:39:21.374Z,89.95
2023-01-15T01:39:52.916Z,90.12
2023-01-15T01:40:24.359Z,89.54
2023-01-15T01:40:55.871Z,89.68
2023-01-15T01:41:28.291Z,89.64
2023-01-15T01:41:59.758Z,89.66
2023-01-15T01:42:31.347Z,89.99
2023-01-15T01:43:02.808Z,89.91
2023-01-15T01:43:56.436Z,90.10
2023-01-15T01:44:34.620Z,89.92
2023-01-15T01:45:28.328Z,90.14
2023-01-15T01:46:19.001Z,90.22
2023-01-15T01:46:50.453Z,89.52
2023-01-15T01:47:27.038Z,89.43
2023-01-15T01:48:04.848Z,89.45
2023-01-15T01:48:36.210Z,89.68
2023-01-15T01:49:12.840Z,90.22
2023-01-15T01:49:47.382Z,89.77
2023-01-15T01:50:19.203Z,89.59
2023-01-15T01:50:51.291Z,89.27
2023-01-15T01:51:26.813Z,89.89
2023-01-15T01:52:04.072Z,90.04
2023-01-15T01:52:46.901Z,89.42
2023-01-15T01:53:24.013Z,89.68
2023-01-15T01:53:58.211Z,89.36
2023-01-15T01:54:33.886Z,89.36
2023-01-15T01:55:06.502Z,89.61
2023-01-15T01:55:38.306Z,89.60
2023-01-15T01:56:11.706Z,89.47
2023-01-15T01:56:43.383Z,89.28
2023-01-15T01:57:16.200Z,88.92
2023-01-15T01:57:49.429Z,89.04
2023-01-15T01:58:25.205Z,89.50
2023-01-15T01:58:56.967Z,89.08
2023-01-15T01:59:29.671Z,88.97
2023-01-15T02:00:05.055Z,89.07
2023-01-15T02:00:41.089Z,89.31
2023-01-15T02:01:12.735Z,89.46
2023-01-15T02:01:44.278Z,88.83
2023-01-15T02:02:19.685Z,89.37
2023-01-15T02:02:52.510Z,89.87
2023-01-15T02:03:28.948Z,89.35
2023-01-15T02:04:01.532Z,89.32
2023-01-15T02:04:33.643Z,89.59
2023-01-15T02:05:07.487Z,89.30
2023-01-15T02:05:43.859Z,89.26
2023-01-15T02:06:15.735Z,89.19
2023-01-15T02:06:47.233Z,89.14
2023-01-15T02:07:18.775Z,89.26
2023-01-15T02:07:50.149Z,89.02
2023-01-15T02:08:22.980Z,88.72
2023-01-15T02:08:54.651Z,89.24
2023-01-15T02:09:26.645Z,88.89
2023-01-15T02:09:58.059Z,89.25
2023-01-15T02:10:29.498Z,89.01
2023-01-15T02:11:01.582Z,88.56
2023-01-15T02:11:34.772Z,88.69
2023-01-15T02:12:35.797Z,89.03
2023-01-15T02:13:25.045Z,88.97
2023-01-15T02:14:13.119Z,89.07
2023-01-15T02:15:03.148Z,89.19
2023-01-15T02:15:43.300Z,89.09
2023-01-15T02:16:25.703Z,89.20
2023-01-15T02:17:07.555Z,88.92
2023-01-15T02:17:49.156Z,88.86
2023-01-15T02:18:31.779Z,88.21
2023-01-15T02:19:05.878Z,88.09
2023-01-15T02:19:59.048Z,88.53
2023-01-15T02:20:50.766Z,88.81
2023-01-15T02:21:48.293Z,88.90
2023-01-15T02:22:33.244Z,88.51
2023-01-15T02:23:29.181Z,88.67
2023-01-15T02:24:09.834Z,88.38
2023-01-15T02:25:24.652Z,88.86
2023-01-15T02:26:26.602Z,88.74
2023-01-15T02:27:07.453Z,88.46
2023-01-15T02:27:47.748Z,88.50
2023-01-15T02:28:51.469Z,88.34
2023-01-15T02:29:32.207Z,88.05
2023-01-15T02:30:10.405Z,87.80
2023-01-15T02:30:50.572Z,87.73
2023-01-15T02:31:31.893Z,88.38
2023-01-15T02:32:14.004Z,87.76
2023-01-15T02:32:59.778Z,87.53
2023-01-15T02:33:40.683Z,87.83
2023-01-15T02:34:19.541Z,87.83
2023-01-15T02:34:55.158Z,88.19
2023-01-15T02:35:37.467Z,88.11
2023-01-15T02:36:11.472Z,88.10
2023-01-15T02:36:50.371Z,88.00
2023-01-15T02:37:27.298Z,87.79
2023-01-15T02:38:03.369Z,88.00
2023-01-15T02:38:40.602Z,87.69
2023-01-15T02:39:15.390Z,88.15
2023-01-15T02:39:49.602Z,88.00
2023-01-15T02:40:23.827Z,88.20
2023-01-15T02:40:58.591Z,88.43
2023-01-15T02:41:37.461Z,87.73
2023-01-15T02:42:29.279Z,88.25
2023-01-15T02:43:01.092Z,88.23
2023-01-15T02:43:36.069Z,87.96
2023-01-15T02:44:10.518Z,87.15
2023-01-15T02:44:48.248Z,87.26
2023-01-15T02:45:24.315Z,86.96
2023-01-15T02:46:00.074Z,87.43
2023-01-15T02:46:35.793Z,86.66
2023-01-15T02:47:09.815Z,87.41
2023-01-15T02:47:44.880Z,87.18
2023-01-15T02:48:20.760Z,87.54
2023-01-15T02:48:55.397Z,87.22
2023-01-15T02:49:27.321Z,87.29
2023-01-15T02:51:10.127Z,87.22
2023-01-15T02:51:46.762Z,86.88
2023-01-15T02:52:31.535Z,86.68
2023-01-15T02:53:07.969Z,86.96
2023-01-15T02:53:43.045Z,87.22
2023-01-15T02:54:17.089Z,86.97
2023-01-15T02:55:20.344Z,86.98
2023-01-15T02:55:56.264Z,87.44
2023-01-15T02:56:33.001Z,86.83
2023-01-15T02:57:05.212Z,86.78
2023-01-15T02:57:39.019Z,86.75
2023-01-15T02:58:15.695Z,86.76
2023-01-15T02:58:51.264Z,87.41
2023-01-15T02:59:34.078Z,87.13
2023-01-15T03:00:10.147Z,86.95
2023-01-15T03:00:47.204Z,87.18
2023-01-15T03:01:24.332Z,86.70
2023-01-15T03:02:03.105Z,86.61
2023-01-15T03:03:02.282Z,86.72
2023-01-15T03:03:40.675Z,86.88
2023-01-15T03:04:31.004Z,86.74
2023-01-15T03:05:09.790Z,86.25
2023-01-15T03:05:52.078Z,86.77
2023-01-15T03:06:45.557Z,86.70
2023-01-15T03:07:31.311Z,86.37
2023-01-15T03:08:05.527Z,87.13
2023-01-15T03:08:37.757Z,86.91
2023-01-15T03:09:09.827Z,86.93
2023-01-15T03:09:41.861Z,86.57
2023-01-15T03:10:13.759Z,86.94
2023-01-15T03:11:07.133Z,86.86
2023-01-15T03:11:44.834Z,86.97
2023-01-15T03:12:57.502Z,86.91
2023-01-15T03:13:39.250Z,86.55
2023-01-15T03:14:28.934Z,86.67
2023-01-15T03:15:08.825Z,86.18
2023-01-15T03:16:11.703Z,86.84
2023-01-15T03:16:56.779Z,86.54
2023-01-15T03:17:47.175Z,86.22
2023-01-15T03:18:22.357Z,86.68
2023-01-15T03:18:59.375Z,86.35
2023-01-15T03:19:40.356Z,86.58
2023-01-15T03:21:13.477Z,86.35
2023-01-15T03:21:53.878Z,86.30
2023-01-15T03:22:33.271Z,86.19
2023-01-15T03:23:11.274Z,86.36
2023-01-15T03:23:49.314Z,86.15
2023-01-15T03:24:42.198Z,86.40
2023-01-15T03:25:21.333Z,86.31
2023-01-15T03:25:53.240Z,85.68
2023-01-15T03:26:24.618Z,85.98
2023-01-15T03:26:56.371Z,85.82
2023-01-15T03:27:28.186Z,85.70
2023-01-15T03:28:02.767Z,86.05
2023-01-15T03:28:39.472Z,85.45
2023-01-15T03:29:12.328Z,85.97
2023-01-15T03:29:47.496Z,85.49
2023-01-15T03:30:21.688Z,85.97
2023-01-15T03:30:53.219Z,86.02
2023-01-15T03:31:24.911Z,85.85
2023-01-15T03:31:56.776Z,86.01
2023-01-15T03:32:28.957Z,85.69
2023-01-15T03:33:00.402Z,86.29
2023-01-15T03:33:31.968Z,85.71
2023-01-15T03:34:03.982Z,86.25
2023-01-15T03:34:46.138Z,85.90
2023-01-15T03:35:42.271Z,86.11
2023-01-15T03:36:13.751Z,85.93
2023-01-15T03:36:45.230Z,85.71
2023-01-15T03:37:18.081Z,86.11
2023-01-15T03:37:49.532Z,86.03
2023-01-15T03:38:27.817Z,86.11
2023-01-15T03:38:59.627Z,86.12
2023-01-15T03:39:31.118Z,85.80
2023-01-15T03:40:04.511Z,85.86
2023-01-15T03:40:38.647Z,85.77
2023-01-15T03:41:21.897Z,85.31
2023-01-15T03:42:07.793Z,86.00
2023-01-15T03:43:13.534Z,85.91
2023-01-15T03:44:00.558Z,85.49
2023-01-15T03:44:41.063Z,85.62
2023-01-15T03:45:17.814Z,85.89
2023-01-15T03:45:53.528Z,85.91
2023-01-15T03:47:42.629Z,86.02
2023-01-15T03:48:44.474Z,86.29
2023-01-15T03:49:15.852Z,85.01
2023-01-15T03:50:04.369Z,85.70
2023-01-15T03:50:46.731Z,85.75
2023-01-15T03:51:33.419Z,85.78
2023-01-15T03:52:27.022Z,85.81
2023-01-15T03:54:05.529Z,85.69
2023-01-15T03:54:48.441Z,85.62
2023-01-15T03:55:25.460Z,85.70
2023-01-15T03:56:13.607Z,85.84
2023-01-15T03:56:57.187Z,85.54
2023-01-15T03:57:50.172Z,85.66
2023-01-15T03:58:38.100Z,85.12
2023-01-15T03:59:24.186Z,85.60
2023-01-15T04:00:03.700Z,85.78
2023-01-15T04:00:52.727Z,86.00
2023-01-15T04:01:32.054Z,85.46
2023-01-15T04:02:08.703Z,85.91
2023-01-15T04:02:41.501Z,85.65
2023-01-15T04:03:15.018Z,85.45
2023-01-15T04:03:50.106Z,85.84
2023-01-15T04:04:21.816Z,85.69
2023-01-15T04:04:54.714Z,85.55
2023-01-15T04:05:28.554Z,85.47
2023-01-15T04:06:01.928Z,85.15
2023-01-15T04:06:38.378Z,85.77
2023-01-15T04:07:09.990Z,85.87
2023-01-15T04:07:42.527Z,86.03
2023-01-15T04:08:17.806Z,85.56
2023-01-15T04:09:40.290Z,85.33
2023-01-15T04:10:12.265Z,85.50
2023-01-15T04:11:02.275Z,85.36
2023-01-15T04:11:33.838Z,85.40
2023-01-15T04:12:05.770Z,85.21
2023-01-15T04:12:37.384Z,85.23
2023-01-15T04:13:08.822Z,85.17
2023-01-15T04:13:40.196Z,85.80
2023-01-15T04:14:14.358Z,85.38
2023-01-15T04:14:45.828Z,85.84
2023-01-15T04:15:17.621Z,85.45
2023-01-15T04:15:49.373Z,85.93
2023-01-15T04:16:29.219Z,85.81
2023-01-15T04:17:00.758Z,85.84
2023-01-15T04:17:32.165Z,85.77
2023-01-15T04:18:03.630Z,85.96
2023-01-15T04:18:35.064Z,85.54
2023-01-15T04:19:06.784Z,85.89
2023-01-15T04:19:38.352Z,86.00
2023-01-15T04:20:10.831Z,85.75
2023-01-15T04:20:42.232Z,86.03
2023-01-15T04:21:13.609Z,85.72
2023-01-15T04:21:45.038Z,86.13
2023-01-15T04:22:16.610Z,86.06
2023-01-15T04:22:48.029Z,85.71
2023-01-15T04:23:19.402Z,86.08
2023-01-15T04:23:51.285Z,85.87
2023-01-15T04:24:22.721Z,85.81
2023-01-15T04:24:55.166Z,86.65
2023-01-15T04:25:26.733Z,86.05
2023-01-15T04:25:58.164Z,86.20
2023-01-15T04:26:29.597Z,85.74
2023-01-15T04:27:01.071Z,85.55
2023-01-15T04:27:32.802Z,85.44
2023-01-15T04:28:04.303Z,86.12
2023-01-15T04:28:35.657Z,85.84
2023-01-15T04:29:07.133Z,85.82
2023-01-15T04:29:38.514Z,86.20
2023-01-15T04:30:10.617Z,86.11
2023-01-15T04:30:43.442Z,86.01
2023-01-15T04:31:15.581Z,86.34
2023-01-15T04:31:47.288Z,86.52
2023-01-15T04:32:19.075Z,86.89
2023-01-15T04:33:08.995Z,86.11
2023-01-15T04:33:40.697Z,86.19
2023-01-15T04:34:12.089Z,86.03
2023-01-15T04:34:43.519Z,86.16
2023-01-15T04:35:15.113Z,85.68
2023-01-15T04:35:47.475Z,86.04
2023-01-15T04:36:19.423Z,86.29
2023-01-15T04:36:50.878Z,86.02
2023-01-15T04:38:11.033Z,85.97
2023-01-15T04:38:42.437Z,86.29
2023-01-15T04:39:13.856Z,86.41
2023-01-15T04:39:46.814Z,86.22
2023-01-15T04:40:36.874Z,86.15
2023-01-15T04:41:27.937Z,86.22
2023-01-15T04:42:31.493Z,86.13
2023-01-15T04:43:21.582Z,86.36
2023-01-15T04:44:07.970Z,85.89
2023-01-15T04:44:39.360Z,85.63
2023-01-15T04:45:10.809Z,85.79
2023-01-15T04:45:43.992Z,85.32
2023-01-15T04:46:15.396Z,85.21
2023-01-15T04:46:47.825Z,85.09
2023-01-15T04:47:19.254Z,85.13
2023-01-15T04:47:50.838Z,85.39
2023-01-15T04:48:22.377Z,85.34
2023-01-15T04:48:53.749Z,85.07
2023-01-15T04:49:25.216Z,85.07
2023-01-15T04:49:56.665Z,85.64
2023-01-15T04:50:28.054Z,85.46
2023-01-15T04:51:04.178Z,85.40
2023-01-15T04:51:35.727Z,85.74
2023-01-15T04:52:07.199Z,85.76
2023-01-15T04:52:38.674Z,85.54
2023-01-15T04:53:10.103Z,85.61
2023-01-15T04:53:41.737Z,85.24
2023-01-15T04:54:15.009Z,85.54
2023-01-15T04:54:46.493Z,85.05
2023-01-15T04:55:17.825Z,85.17
2023-01-15T04:55:49.208Z,84.82
2023-01-15T04:56:20.795Z,84.76
2023-01-15T04:56:54.321Z,84.27
2023-01-15T04:57:25.772Z,84.37
2023-01-15T04:57:57.120Z,84.43
2023-01-15T04:58:29.358Z,85.15
2023-01-15T04:59:01.773Z,84.49
2023-01-15T04:59:33.342Z,84.94
2023-01-15T05:00:05.473Z,84.85
2023-01-15T05:00:36.874Z,84.89
2023-01-15T05:01:13.511Z,84.78
2023-01-15T05:02:01.802Z,84.78
2023-01-15T05:02:33.801Z,84.58
2023-01-15T05:03:05.333Z,84.72
2023-01-15T05:03:36.782Z,84.62
2023-01-15T05:04:08.570Z,84.69
2023-01-15T05:04:40.024Z,85.19
2023-01-15T05:05:11.487Z,85.13
2023-01-15T05:05:42.863Z,85.21
2023-01-15T05:06:14.537Z,84.80
2023-01-15T05:06:45.995Z,84.75
2023-01-15T05:07:17.408Z,84.85
2023-01-15T05:07:48.820Z,85.38
2023-01-15T05:08:20.700Z,85.18
2023-01-15T05:08:52.724Z,85.04
2023-01-15T05:09:24.292Z,85.10
2023-01-15T05:09:55.693Z,85.56
2023-01-15T05:10:27.067Z,85.35
2023-01-15T05:11:05.881Z,84.91
2023-01-15T05:11:39.426Z,85.02
2023-01-15T05:12:59.713Z,85.20
2023-01-15T05:13:33.403Z,85.17
2023-01-15T05:14:06.151Z,85.16
2023-01-15T05:14:37.543Z,85.38
2023-01-15T05:15:09.213Z,85.21
2023-01-15T05:15:41.046Z,85.23
2023-01-15T05:16:18.625Z,85.60
2023-01-15T05:16:50.145Z,85.02
2023-01-15T05:17:21.561Z,84.94
2023-01-15T05:17:52.962Z,84.62
2023-01-15T05:18:24.383Z,85.28
2023-01-15T05:18:59.304Z,85.04
2023-01-15T05:19:30.737Z,84.73
2023-01-15T05:20:02.182Z,84.74
2023-01-15T05:20:36.912Z,85.28
2023-01-15T05:21:15.159Z,85.18
2023-01-15T05:21:46.620Z,84.63
2023-01-15T05:22:18.029Z,84.49
2023-01-15T05:22:49.430Z,85.11
2023-01-15T05:23:20.896Z,84.87
2023-01-15T05:23:54.848Z,85.06
2023-01-15T05:24:26.517Z,85.20
2023-01-15T05:24:57.881Z,85.49
2023-01-15T05:25:29.254Z,85.24
2023-01-15T05:26:04.062Z,85.40
2023-01-15T05:26:36.197Z,85.65
2023-01-15T05:27:07.657Z,85.88
2023-01-15T05:27:39.069Z,85.70
2023-01-15T05:28:10.429Z,86.01
2023-01-15T05:28:42.177Z,86.24
2023-01-15T05:29:13.879Z,86.45
2023-01-15T05:29:45.450Z,85.91
2023-01-15T05:30:17.219Z,85.94
2023-01-15T05:30:48.782Z,86.22
2023-01-15T05:31:20.494Z,86.21
2023-01-15T05:31:51.959Z,85.91
2023-01-15T05:32:23.393Z,86.00
2023-01-15T05:32:54.876Z,86.59
2023-01-15T05:33:26.261Z,86.67
2023-01-15T05:33:58.048Z,86.33
2023-01-15T05:34:29.425Z,86.33
2023-01-15T05:35:00.811Z,86.37
2023-01-15T05:35:32.231Z,86.72
2023-01-15T05:36:10.240Z,86.14
2023-01-15T05:36:41.882Z,85.88
2023-01-15T05:37:13.295Z,86.27
2023-01-15T05:37:44.734Z,86.44
2023-01-15T05:38:16.179Z,86.46
2023-01-15T05:38:48.089Z,86.03
2023-01-15T05:39:19.447Z,86.70
2023-01-15T05:39:50.971Z,86.26
2023-01-15T05:40:22.405Z,86.47
2023-01-15T05:40:53.783Z,86.16
2023-01-15T05:41:43.858Z,86.28
2023-01-15T05:42:15.316Z,86.54
2023-01-15T05:42:46.725Z,86.88
2023-01-15T05:43:18.124Z,86.67
2023-01-15T05:43:49.532Z,86.59
2023-01-15T05:44:22.672Z,86.32
2023-01-15T05:44:54.058Z,86.89
2023-01-15T05:45:25.596Z,86.80
2023-01-15T05:46:02.001Z,86.44
2023-01-15T05:46:34.931Z,86.83
2023-01-15T05:47:07.629Z,86.50
2023-01-15T05:47:39.175Z,86.69
2023-01-15T05:48:10.573Z,86.60
2023-01-15T05:48:42.017Z,86.65
2023-01-15T05:49:16.914Z,86.52
2023-01-15T05:49:50.115Z,87.00
2023-01-15T05:50:21.554Z,86.87
2023-01-15T05:50:52.922Z,86.41
2023-01-15T05:51:24.339Z,86.67
2023-01-15T05:51:56.038Z,86.29
2023-01-15T05:52:27.453Z,86.73
2023-01-15T05:52:58.871Z,86.24
2023-01-15T05:53:34.726Z,86.25
2023-01-15T05:54:07.761Z,86.24
2023-01-15T05:54:39.575Z,86.48
2023-01-15T05:55:11.033Z,86.30
2023-01-15T05:55:42.506Z,86.29
2023-01-15T05:56:13.927Z,86.07
2023-01-15T05:56:48.947Z,86.04
2023-01-15T05:57:20.314Z,85.75
2023-01-15T05:57:51.736Z,86.17
2023-01-15T05:58:23.167Z,85.95
2023-01-15T05:58:54.801Z,86.12
2023-01-15T05:59:28.431Z,86.24
2023-01-15T05:59:59.856Z,86.10
2023-01-15T06:00:31.280Z,85.88
2023-01-15T06:01:08.567Z,85.65
2023-01-15T06:01:40.356Z,86.03
2023-01-15T06:02:11.778Z,86.23
2023-01-15T06:02:43.244Z,86.42
2023-01-15T06:03:14.642Z,86.11
2023-01-15T06:03:48.182Z,85.74
2023-01-15T06:04:21.594Z,85.70
2023-01-15T06:04:53.002Z,86.34
2023-01-15T06:05:24.353Z,86.03
2023-01-15T06:05:56.877Z,86.06
2023-01-15T06:06:29.122Z,86.08
2023-01-15T06:07:00.729Z,86.31
2023-01-15T06:07:32.286Z,85.90
2023-01-15T06:08:03.729Z,85.76
2023-01-15T06:08:35.265Z,86.11
2023-01-15T06:09:06.720Z,86.17
2023-01-15T06:09:38.162Z,86.08
2023-01-15T06:10:10.147Z,85.98
2023-01-15T06:10:44.849Z,85.87
2023-01-15T06:11:16.181Z,85.77
2023-01-15T06:11:47.758Z,85.80
2023-01-15T06:12:19.209Z,86.06
2023-01-15T06:12:50.605Z,85.81
2023-01-15T06:13:22.204Z,86.34
2023-01-15T06:13:53.560Z,86.24
2023-01-15T06:14:25.498Z,85.99
2023-01-15T06:14:56.860Z,86.11
2023-01-15T06:15:28.343Z,86.21
2023-01-15T06:16:00.736Z,85.86
2023-01-15T06:16:33.258Z,85.82
2023-01-15T06:17:04.745Z,86.40
2023-01-15T06:17:36.241Z,86.34
2023-01-15T06:18:07.946Z,85.78
2023-01-15T06:18:40.507Z,86.43
2023-01-15T06:19:13.559Z,86.29
2023-01-15T06:19:46.067Z,85.51
2023-01-15T06:20:17.608Z,85.60
2023-01-15T06:20:49.093Z,86.02
2023-01-15T06:21:20.582Z,85.62
2023-01-15T06:21:52.043Z,86.00
2023-01-15T06:22:23.445Z,86.30
2023-01-15T06:22:54.849Z,86.02
2023-01-15T06:23:26.221Z,85.75
2023-01-15T06:23:57.704Z,85.76
2023-01-15T06:24:29.054Z,86.25
2023-01-15T06:25:00.644Z,86.27
2023-01-15T06:25:36.926Z,85.77
2023-01-15T06:26:27.406Z,85.94
2023-01-15T06:26:58.989Z,86.24
2023-01-15T06:27:30.374Z,86.67
2023-01-15T06:28:01.743Z,86.49
2023-01-15T06:28:35.225Z,86.61
2023-01-15T06:29:06.728Z,86.05
2023-01-15T06:29:38.094Z,86.34
2023-01-15T06:30:10.800Z,86.13
2023-01-15T06:30:42.334Z,85.75
2023-01-15T06:31:16.544Z,85.81
2023-01-15T06:31:49.288Z,85.93
2023-01-15T06:32:20.849Z,85.38
2023-01-15T06:32:52.216Z,85.47
2023-01-15T06:33:24.242Z,85.49
2023-01-15T06:33:56.194Z,85.18
2023-01-15T06:34:27.536Z,85.35
2023-01-15T06:34:58.943Z,84.70
2023-01-15T06:35:30.706Z,85.33
2023-01-15T06:36:06.903Z,84.80
2023-01-15T06:36:38.383Z,84.39
2023-01-15T06:37:09.789Z,84.35
2023-01-15T06:37:41.187Z,84.23
2023-01-15T06:38:13.084Z,83.96
2023-01-15T06:38:44.985Z,83.86
2023-01-15T06:39:16.483Z,83.69
2023-01-15T06:39:47.950Z,83.29
2023-01-15T06:40:19.784Z,83.57
2023-01-15T06:40:51.190Z,83.34
2023-01-15T06:41:44.324Z,83.22
2023-01-15T06:42:34.301Z,83.56
2023-01-15T06:43:24.397Z,83.44
2023-01-15T06:44:14.318Z,83.42
2023-01-15T06:45:04.037Z,83.79
2023-01-15T06:46:00.262Z,83.14
2023-01-15T06:46:50.008Z,83.22
2023-01-15T06:47:23.186Z,83.75
2023-01-15T06:47:55.748Z,83.70
2023-01-15T06:48:27.824Z,83.72
2023-01-15T06:48:59.170Z,83.38
2023-01-15T06:49:32.491Z,83.05
2023-01-15T06:50:04.150Z,82.92
2023-01-15T06:50:35.661Z,83.03
2023-01-15T06:51:07.031Z,83.14
2023-01-15T06:51:38.571Z,83.10
2023-01-15T06:52:09.985Z,83.19
2023-01-15T06:52:41.717Z,83.36
2023-01-15T06:53:13.972Z,83.07
2023-01-15T06:53:45.415Z,82.96
2023-01-15T06:54:16.879Z,83.24
2023-01-15T06:54:48.428Z,83.38
2023-01-15T06:55:19.952Z,83.78
2023-01-15T06:55:51.407Z,83.65
2023-01-15T06:56:22.823Z,83.92
2023-01-15T06:56:54.240Z,83.68
2023-01-15T06:57:25.718Z,83.59
2023-01-15T06:57:57.060Z,84.05
2023-01-15T06:58:46.870Z,83.83
2023-01-15T06:59:18.909Z,83.99
2023-01-15T06:59:50.872Z,84.28
2023-01-15T07:00:22.516Z,84.23
2023-01-15T07:00:56.174Z,84.33
2023-01-15T07:01:30.915Z,84.49
2023-01-15T07:02:02.761Z,84.23
2023-01-15T07:02:34.803Z,84.20
2023-01-15T07:03:06.225Z,84.43
2023-01-15T07:03:37.801Z,84.90
2023-01-15T07:04:09.322Z,84.96
2023-01-15T07:04:40.977Z,84.92
2023-01-15T07:06:55.269Z,85.60
2023-01-15T07:07:28.579Z,85.65
2023-01-15T07:07:59.988Z,85.88
2023-01-15T07:08:31.398Z,85.59
2023-01-15T07:09:02.885Z,85.82
2023-01-15T07:09:52.913Z,85.83
2023-01-15T07:10:24.710Z,86.00
2023-01-15T07:10:56.154Z,86.05
2023-01-15T07:11:27.679Z,85.94
2023-01-15T07:11:59.167Z,86.14
2023-01-15T07:12:49.432Z,86.26
2023-01-15T07:13:20.851Z,86.56
2023-01-15T07:14:05.746Z,85.95
2023-01-15T07:14:37.738Z,86.14
2023-01-15T07:15:09.723Z,86.61
2023-01-15T07:15:41.227Z,86.54
2023-01-15T07:16:27.692Z,86.58
2023-01-15T07:16:59.464Z,86.50
2023-01-15T07:17:30.900Z,86.95
2023-01-15T07:18:04.154Z,87.02
2023-01-15T07:18:35.555Z,87.12
2023-01-15T07:19:06.931Z,86.65
2023-01-15T07:19:38.371Z,86.83
2023-01-15T07:20:10.776Z,86.47
2023-01-15T07:20:42.176Z,86.68
2023-01-15T07:21:13.571Z,86.91
2023-01-15T07:21:45.363Z,86.80
2023-01-15T07:22:17.273Z,87.13
2023-01-15T07:22:50.005Z,86.95
2023-01-15T07:23:22.617Z,86.84
2023-01-15T07:23:55.087Z,87.00
2023-01-15T07:24:26.580Z,86.62
2023-01-15T07:24:57.922Z,86.87
2023-01-15T07:25:29.336Z,86.71
2023-01-15T07:26:00.716Z,86.78
2023-01-15T07:26:32.225Z,86.73
2023-01-15T07:27:22.035Z,86.60
2023-01-15T07:27:53.592Z,86.70
2023-01-15T07:28:25.194Z,86.50
2023-01-15T07:28:56.585Z,86.52
2023-01-15T07:29:30.033Z,86.20
2023-01-15T07:30:02.075Z,86.04
2023-01-15T07:30:33.594Z,85.97
2023-01-15T07:31:05.408Z,85.93
2023-01-15T07:31:37.511Z,86.08
2023-01-15T07:32:10.453Z,86.14
2023-01-15T07:32:41.970Z,86.09
2023-01-15T07:33:13.583Z,85.79
2023-01-15T07:33:45.086Z,85.89
2023-01-15T07:34:16.751Z,85.49
2023-01-15T07:34:48.302Z,85.81
2023-01-15T07:35:19.680Z,85.39
2023-01-15T07:35:51.018Z,85.58
2023-01-15T07:36:22.770Z,86.11
2023-01-15T07:36:54.172Z,86.00
2023-01-15T07:37:27.855Z,85.55
2023-01-15T07:37:59.981Z,85.74